KSJX

Details ICAO KSJX
Name BEAVER ISLAND
Region United States
Timezone America/Detroit (UTC-4.0)
Plans Departing 11
Arriving 7
Stats Elevation 669 ft / 204 m (AMSL)
Location 45.692538° -85.566368°
Runways 3
Magnetic Variation 6.345° W
Sunrise 2018-05-25 10:02:34 UTC / 2018-05-25 06:02:34 Local
Sunset 2018-05-26 01:18:46 UTC / 2018-05-25 21:18:46 Local
Advertisement - Login to hide

Runways

ID Width Length Bearing (true) Bearing (mag) Surface Threshold Offset Overrun Length
05 120 ft / 37 m 2,080 ft / 634 m 42.28° 48.63° Grass 0 ft / 0 m 0 ft / 0 m
09 75 ft / 23 m 4,289 ft / 1,307 m 90.14° 96.49° Asphalt 0 ft / 0 m 0 ft / 0 m
14 120 ft / 37 m 3,299 ft / 1,006 m 132.10° 138.45° Grass 0 ft / 0 m 0 ft / 0 m
23 120 ft / 37 m 2,080 ft / 634 m 222.29° 228.64° Grass 0 ft / 0 m 0 ft / 0 m
27 75 ft / 23 m 4,289 ft / 1,307 m 270.15° 276.50° Asphalt 0 ft / 0 m 0 ft / 0 m
32 120 ft / 37 m 3,299 ft / 1,006 m 312.10° 318.45° Grass 600 ft / 183 m 0 ft / 0 m

Map

Weather


0- 5 10 15 20 25 30 35+ Temperature / ° C

Clouds and Precipitation
Forecast for 2018-05-25 12:00 UTC. Updated 23 minutes ago

Ground ~20,000 ft ~40,000 ft Winds

METAR

KSJX 250935Z AUTO 20007G16KT 4SM +RA SCT023 SCT044 OVC060 15/12 A2990 RMK AO2 T01540123

TAF

Not found

Frequencies

Recorded 118.07 MHz AWOS 3
Unicom 122.80 MHz CTAF/UNICOM
Warning: Do not use this data for real-world aviation or navigation. No guarantee of current accuracy is given.